sensor_id;sensor_type;location;lat;lon;timestamp;P1;durP1;ratioP1;P2;durP2;ratioP2
14231;SDS011;7200;52.194;9.900;2024-01-15T00:02:01;11.57;;;10.47;;
14231;SDS011;7200;52.194;9.900;2024-01-15T00:04:28;13.90;;;12.53;;
14231;SDS011;7200;52.194;9.900;2024-01-15T00:06:53;9.27;;;8.33;;
14231;SDS011;7200;52.194;9.900;2024-01-15T00:09:18;15.80;;;14.40;;
14231;SDS011;7200;52.194;9.900;2024-01-15T00:11:44;14.77;;;13.47;;
14231;SDS011;7200;52.194;9.900;2024-01-15T00:14:09;10.97;;;8.97;;
14231;SDS011;7200;52.194;9.900;2024-01-15T00:16:35;12.13;;;10.93;;
14231;SDS011;7200;52.194;9.900;2024-01-15T00:19:00;9.63;;;8.73;;
14231;SDS011;7200;52.194;9.900;2024-01-15T00:21:25;12.43;;;11.13;;
14231;SDS011;7200;52.194;9.900;2024-01-15T00:23:52;10.87;;;8.97;;
14231;SDS011;7200;52.194;9.900;2024-01-15T00:26:17;9.50;;;8.50;;
14231;SDS011;7200;52.194;9.900;2024-01-15T00:28:42;12.37;;;11.27;;
14231;SDS011;7200;52.194;9.900;2024-01-15T00:31:08;11.90;;;10.87;;
14231;SDS011;7200;52.194;9.900;2024-01-15T00:33:33;12.97;;;11.77;;
14231;SDS011;7200;52.194;9.900;2024-01-15T00:35:58;6.60;;;5.47;;
14231;SDS011;7200;52.194;9.900;2024-01-15T00:38:24;5.73;;;5.13;;
14231;SDS011;7200;52.194;9.900;2024-01-15T00:40:50;8.33;;;7.53;;
14231;SDS011;7200;52.194;9.900;2024-01-15T00:43:15;7.70;;;7.00;;
14231;SDS011;7200;52.194;9.900;2024-01-15T00:45:43;8.17;;;7.57;;
14231;SDS011;7200;52.194;9.900;2024-01-15T00:48:08;5.67;;;5.13;;
14231;SDS011;7200;52.194;9.900;2024-01-15T00:50:33;5.37;;;4.77;;
14231;SDS011;7200;52.194;9.900;2024-01-15T00:52:59;7.93;;;7.13;;
14231;SDS011;7200;52.194;9.900;2024-01-15T00:55:24;4.87;;;4.47;;
14231;SDS011;7200;52.194;9.900;2024-01-15T00:57:49;4.60;;;4.07;;
14231;SDS011;7200;52.194;9.900;2024-01-15T01:00:14;9.20;;;7.60;;
14231;SDS011;7200;52.194;9.900;2024-01-15T01:02:40;6.20;;;5.60;;
14231;SDS011;7200;52.194;9.900;2024-01-15T01:05:05;7.60;;;6.90;;
14231;SDS011;7200;52.194;9.900;2024-01-15T01:07:31;3.93;;;2.23;;
14231;SDS011;7200;52.194;9.900;2024-01-15T01:09:56;2.70;;;2.47;;
14231;SDS011;7200;52.194;9.900;2024-01-15T01:12:22;4.97;;;4.57;;
14231;SDS011;7200;52.194;9.900;2024-01-15T01:14:47;5.03;;;4.60;;
14231;SDS011;7200;52.194;9.900;2024-01-15T01:17:12;7.97;;;7.27;;
14231;SDS011;7200;52.194;9.900;2024-01-15T01:19:37;6.53;;;5.73;;
14231;SDS011;7200;52.194;9.900;2024-01-15T01:22:03;5.37;;;4.80;;
14231;SDS011;7200;52.194;9.900;2024-01-15T01:24:28;4.67;;;4.13;;
14231;SDS011;7200;52.194;9.900;2024-01-15T01:26:53;5.93;;;4.83;;
14231;SDS011;7200;52.194;9.900;2024-01-15T01:29:19;5.90;;;5.30;;
14231;SDS011;7200;52.194;9.900;2024-01-15T01:31:44;2.67;;;1.93;;
14231;SDS011;7200;52.194;9.900;2024-01-15T01:34:10;4.30;;;3.33;;
14231;SDS011;7200;52.194;9.900;2024-01-15T01:36:38;5.77;;;4.03;;
14231;SDS011;7200;52.194;9.900;2024-01-15T01:39:04;6.53;;;2.37;;
14231;SDS011;7200;52.194;9.900;2024-01-15T01:41:29;7.03;;;5.37;;
14231;SDS011;7200;52.194;9.900;2024-01-15T01:43:54;8.60;;;3.67;;
14231;SDS011;7200;52.194;9.900;2024-01-15T01:46:20;5.50;;;4.27;;
14231;SDS011;7200;52.194;9.900;2024-01-15T01:48:45;6.10;;;3.87;;
14231;SDS011;7200;52.194;9.900;2024-01-15T01:51:11;6.10;;;3.23;;
14231;SDS011;7200;52.194;9.900;2024-01-15T01:53:37;8.63;;;4.83;;
14231;SDS011;7200;52.194;9.900;2024-01-15T01:56:03;7.63;;;3.50;;
14231;SDS011;7200;52.194;9.900;2024-01-15T01:58:29;5.90;;;3.73;;
14231;SDS011;7200;52.194;9.900;2024-01-15T02:00:55;5.33;;;4.57;;
14231;SDS011;7200;52.194;9.900;2024-01-15T02:03:21;6.80;;;3.60;;
14231;SDS011;7200;52.194;9.900;2024-01-15T02:05:47;7.13;;;4.50;;
14231;SDS011;7200;52.194;9.900;2024-01-15T02:08:14;6.10;;;4.20;;
14231;SDS011;7200;52.194;9.900;2024-01-15T02:10:40;5.60;;;3.90;;
14231;SDS011;7200;52.194;9.900;2024-01-15T02:13:05;4.67;;;1.83;;
14231;SDS011;7200;52.194;9.900;2024-01-15T02:15:30;5.50;;;3.13;;
14231;SDS011;7200;52.194;9.900;2024-01-15T02:17:56;2.70;;;2.50;;
14231;SDS011;7200;52.194;9.900;2024-01-15T02:20:21;6.47;;;4.00;;
14231;SDS011;7200;52.194;9.900;2024-01-15T02:22:47;3.40;;;2.87;;
14231;SDS011;7200;52.194;9.900;2024-01-15T02:25:12;5.30;;;3.73;;
14231;SDS011;7200;52.194;9.900;2024-01-15T02:27:37;4.77;;;3.07;;
14231;SDS011;7200;52.194;9.900;2024-01-15T02:30:03;4.87;;;2.93;;
14231;SDS011;7200;52.194;9.900;2024-01-15T02:32:29;6.83;;;2.80;;
14231;SDS011;7200;52.194;9.900;2024-01-15T02:34:54;5.17;;;3.33;;
14231;SDS011;7200;52.194;9.900;2024-01-15T02:37:20;3.43;;;2.93;;
14231;SDS011;7200;52.194;9.900;2024-01-15T02:39:46;3.97;;;2.47;;
14231;SDS011;7200;52.194;9.900;2024-01-15T02:42:11;2.23;;;1.77;;
14231;SDS011;7200;52.194;9.900;2024-01-15T02:44:36;7.50;;;3.27;;
14231;SDS011;7200;52.194;9.900;2024-01-15T02:47:02;5.23;;;3.40;;
14231;SDS011;7200;52.194;9.900;2024-01-15T02:49:27;7.70;;;3.53;;
14231;SDS011;7200;52.194;9.900;2024-01-15T02:51:52;5.50;;;3.13;;
14231;SDS011;7200;52.194;9.900;2024-01-15T02:54:17;3.83;;;2.70;;
14231;SDS011;7200;52.194;9.900;2024-01-15T02:56:43;4.40;;;2.93;;
14231;SDS011;7200;52.194;9.900;2024-01-15T02:59:08;6.53;;;2.23;;
14231;SDS011;7200;52.194;9.900;2024-01-15T03:01:33;6.33;;;3.20;;
14231;SDS011;7200;52.194;9.900;2024-01-15T03:03:58;2.90;;;2.40;;
14231;SDS011;7200;52.194;9.900;2024-01-15T03:06:24;3.30;;;2.47;;
14231;SDS011;7200;52.194;9.900;2024-01-15T03:08:49;6.47;;;2.47;;
14231;SDS011;7200;52.194;9.900;2024-01-15T03:11:14;5.97;;;3.13;;
14231;SDS011;7200;52.194;9.900;2024-01-15T03:13:39;3.67;;;2.13;;
14231;SDS011;7200;52.194;9.900;2024-01-15T03:16:05;5.53;;;2.50;;
14231;SDS011;7200;52.194;9.900;2024-01-15T03:18:31;4.50;;;2.30;;
14231;SDS011;7200;52.194;9.900;2024-01-15T03:20:56;5.43;;;2.03;;
14231;SDS011;7200;52.194;9.900;2024-01-15T03:23:21;7.93;;;2.53;;
14231;SDS011;7200;52.194;9.900;2024-01-15T03:25:46;7.53;;;2.30;;
14231;SDS011;7200;52.194;9.900;2024-01-15T03:28:12;7.77;;;3.57;;
14231;SDS011;7200;52.194;9.900;2024-01-15T03:30:37;6.33;;;2.67;;
14231;SDS011;7200;52.194;9.900;2024-01-15T03:33:02;4.77;;;2.50;;
14231;SDS011;7200;52.194;9.900;2024-01-15T03:35:28;6.10;;;3.63;;
14231;SDS011;7200;52.194;9.900;2024-01-15T03:37:55;8.03;;;2.50;;
14231;SDS011;7200;52.194;9.900;2024-01-15T03:40:21;5.53;;;2.23;;
14231;SDS011;7200;52.194;9.900;2024-01-15T03:42:46;6.60;;;3.10;;
14231;SDS011;7200;52.194;9.900;2024-01-15T03:45:11;4.63;;;3.20;;
14231;SDS011;7200;52.194;9.900;2024-01-15T03:47:36;4.43;;;2.33;;
14231;SDS011;7200;52.194;9.900;2024-01-15T03:50:02;8.83;;;3.27;;
14231;SDS011;7200;52.194;9.900;2024-01-15T03:52:27;5.77;;;2.77;;
14231;SDS011;7200;52.194;9.900;2024-01-15T03:54:52;2.03;;;1.80;;
14231;SDS011;7200;52.194;9.900;2024-01-15T03:57:18;7.87;;;2.37;;
14231;SDS011;7200;52.194;9.900;2024-01-15T03:59:43;1.97;;;1.20;;
14231;SDS011;7200;52.194;9.900;2024-01-15T04:02:08;6.13;;;2.23;;
14231;SDS011;7200;52.194;9.900;2024-01-15T04:04:33;4.67;;;2.20;;
14231;SDS011;7200;52.194;9.900;2024-01-15T04:06:59;6.50;;;2.70;;
14231;SDS011;7200;52.194;9.900;2024-01-15T04:09:24;6.07;;;2.80;;
14231;SDS011;7200;52.194;9.900;2024-01-15T04:11:49;6.77;;;2.70;;
14231;SDS011;7200;52.194;9.900;2024-01-15T04:14:15;3.83;;;1.70;;
14231;SDS011;7200;52.194;9.900;2024-01-15T04:16:40;2.70;;;1.40;;
14231;SDS011;7200;52.194;9.900;2024-01-15T04:19:06;8.50;;;3.77;;
14231;SDS011;7200;52.194;9.900;2024-01-15T04:21:31;4.20;;;2.80;;
14231;SDS011;7200;52.194;9.900;2024-01-15T04:23:56;6.27;;;2.17;;
14231;SDS011;7200;52.194;9.900;2024-01-15T04:26:22;6.83;;;2.73;;
14231;SDS011;7200;52.194;9.900;2024-01-15T04:28:47;5.37;;;2.80;;
14231;SDS011;7200;52.194;9.900;2024-01-15T04:31:25;5.67;;;2.47;;
14231;SDS011;7200;52.194;9.900;2024-01-15T04:33:52;6.33;;;2.63;;
14231;SDS011;7200;52.194;9.900;2024-01-15T04:36:17;6.17;;;2.50;;
14231;SDS011;7200;52.194;9.900;2024-01-15T04:38:42;10.80;;;2.20;;
14231;SDS011;7200;52.194;9.900;2024-01-15T04:41:14;2.03;;;1.53;;
14231;SDS011;7200;52.194;9.900;2024-01-15T04:43:41;4.07;;;2.07;;
14231;SDS011;7200;52.194;9.900;2024-01-15T04:46:06;10.10;;;3.30;;
14231;SDS011;7200;52.194;9.900;2024-01-15T04:48:32;2.77;;;1.47;;
14231;SDS011;7200;52.194;9.900;2024-01-15T04:50:57;5.03;;;2.33;;
14231;SDS011;7200;52.194;9.900;2024-01-15T04:53:23;6.17;;;2.50;;
14231;SDS011;7200;52.194;9.900;2024-01-15T04:55:48;3.77;;;1.70;;
14231;SDS011;7200;52.194;9.900;2024-01-15T04:58:13;4.60;;;1.87;;
14231;SDS011;7200;52.194;9.900;2024-01-15T05:00:38;5.57;;;2.67;;
14231;SDS011;7200;52.194;9.900;2024-01-15T05:03:04;3.97;;;1.90;;
14231;SDS011;7200;52.194;9.900;2024-01-15T05:05:29;4.27;;;2.73;;
14231;SDS011;7200;52.194;9.900;2024-01-15T05:07:54;2.10;;;1.77;;
14231;SDS011;7200;52.194;9.900;2024-01-15T05:10:20;7.80;;;2.20;;
14231;SDS011;7200;52.194;9.900;2024-01-15T05:12:45;1.97;;;1.53;;
14231;SDS011;7200;52.194;9.900;2024-01-15T05:15:10;1.77;;;1.63;;
14231;SDS011;7200;52.194;9.900;2024-01-15T05:17:36;1.00;;;0.47;;
14231;SDS011;7200;52.194;9.900;2024-01-15T05:20:01;4.23;;;2.10;;
14231;SDS011;7200;52.194;9.900;2024-01-15T05:22:27;3.73;;;2.43;;
14231;SDS011;7200;52.194;9.900;2024-01-15T05:24:53;3.63;;;2.40;;
14231;SDS011;7200;52.194;9.900;2024-01-15T05:27:18;5.70;;;2.40;;
14231;SDS011;7200;52.194;9.900;2024-01-15T05:29:43;8.80;;;2.10;;
14231;SDS011;7200;52.194;9.900;2024-01-15T05:32:08;8.60;;;3.37;;
14231;SDS011;7200;52.194;9.900;2024-01-15T05:34:34;14.13;;;3.40;;
14231;SDS011;7200;52.194;9.900;2024-01-15T05:36:59;3.90;;;2.83;;
14231;SDS011;7200;52.194;9.900;2024-01-15T05:39:25;8.17;;;3.47;;
14231;SDS011;7200;52.194;9.900;2024-01-15T05:41:50;11.17;;;4.40;;
14231;SDS011;7200;52.194;9.900;2024-01-15T05:44:15;7.57;;;4.13;;
14231;SDS011;7200;52.194;9.900;2024-01-15T05:46:41;5.27;;;2.70;;
14231;SDS011;7200;52.194;9.900;2024-01-15T05:49:06;5.53;;;2.53;;
14231;SDS011;7200;52.194;9.900;2024-01-15T05:51:31;4.63;;;3.03;;
14231;SDS011;7200;52.194;9.900;2024-01-15T05:53:57;4.07;;;3.33;;
14231;SDS011;7200;52.194;9.900;2024-01-15T05:56:22;4.23;;;3.73;;
14231;SDS011;7200;52.194;9.900;2024-01-15T05:58:49;4.13;;;3.23;;
14231;SDS011;7200;52.194;9.900;2024-01-15T06:01:14;8.37;;;2.87;;
14231;SDS011;7200;52.194;9.900;2024-01-15T06:03:39;12.40;;;4.40;;
14231;SDS011;7200;52.194;9.900;2024-01-15T06:06:05;4.10;;;2.80;;
14231;SDS011;7200;52.194;9.900;2024-01-15T06:08:30;6.17;;;3.63;;
14231;SDS011;7200;52.194;9.900;2024-01-15T06:10:56;3.70;;;3.07;;
14231;SDS011;7200;52.194;9.900;2024-01-15T06:13:21;6.20;;;3.53;;
14231;SDS011;7200;52.194;9.900;2024-01-15T06:15:46;6.17;;;3.23;;
14231;SDS011;7200;52.194;9.900;2024-01-15T06:18:12;4.50;;;1.60;;
14231;SDS011;7200;52.194;9.900;2024-01-15T06:20:37;5.07;;;3.37;;
14231;SDS011;7200;52.194;9.900;2024-01-15T06:23:03;8.40;;;2.67;;
14231;SDS011;7200;52.194;9.900;2024-01-15T06:25:28;4.30;;;1.40;;
14231;SDS011;7200;52.194;9.900;2024-01-15T06:27:54;5.63;;;3.93;;
14231;SDS011;7200;52.194;9.900;2024-01-15T06:30:19;5.33;;;3.60;;
14231;SDS011;7200;52.194;9.900;2024-01-15T06:32:45;5.93;;;3.10;;
14231;SDS011;7200;52.194;9.900;2024-01-15T06:35:10;5.10;;;2.97;;
14231;SDS011;7200;52.194;9.900;2024-01-15T06:37:36;7.67;;;4.87;;
14231;SDS011;7200;52.194;9.900;2024-01-15T06:40:02;5.60;;;3.30;;
14231;SDS011;7200;52.194;9.900;2024-01-15T06:42:28;6.53;;;3.73;;
14231;SDS011;7200;52.194;9.900;2024-01-15T06:44:53;3.33;;;2.33;;
14231;SDS011;7200;52.194;9.900;2024-01-15T06:47:18;3.20;;;2.90;;
14231;SDS011;7200;52.194;9.900;2024-01-15T06:49:44;5.00;;;2.43;;
14231;SDS011;7200;52.194;9.900;2024-01-15T06:52:09;3.50;;;2.70;;
14231;SDS011;7200;52.194;9.900;2024-01-15T06:54:36;5.10;;;3.10;;
14231;SDS011;7200;52.194;9.900;2024-01-15T06:57:02;8.80;;;1.80;;
14231;SDS011;7200;52.194;9.900;2024-01-15T06:59:27;7.77;;;2.40;;
14231;SDS011;7200;52.194;9.900;2024-01-15T07:01:52;7.33;;;2.23;;
14231;SDS011;7200;52.194;9.900;2024-01-15T07:04:18;3.70;;;2.33;;
14231;SDS011;7200;52.194;9.900;2024-01-15T07:06:43;6.17;;;2.47;;
14231;SDS011;7200;52.194;9.900;2024-01-15T07:09:08;3.17;;;2.83;;
14231;SDS011;7200;52.194;9.900;2024-01-15T07:11:34;2.47;;;2.20;;
14231;SDS011;7200;52.194;9.900;2024-01-15T07:13:59;2.73;;;2.03;;
14231;SDS011;7200;52.194;9.900;2024-01-15T07:16:24;1.77;;;1.67;;
14231;SDS011;7200;52.194;9.900;2024-01-15T07:18:50;2.70;;;2.40;;
14231;SDS011;7200;52.194;9.900;2024-01-15T07:21:15;5.47;;;2.83;;
14231;SDS011;7200;52.194;9.900;2024-01-15T07:23:40;3.77;;;2.43;;
14231;SDS011;7200;52.194;9.900;2024-01-15T07:26:07;5.33;;;2.30;;
14231;SDS011;7200;52.194;9.900;2024-01-15T07:28:32;2.90;;;2.33;;
14231;SDS011;7200;52.194;9.900;2024-01-15T07:30:57;6.50;;;2.57;;
14231;SDS011;7200;52.194;9.900;2024-01-15T07:33:23;7.13;;;2.97;;
14231;SDS011;7200;52.194;9.900;2024-01-15T07:35:48;4.60;;;2.83;;
14231;SDS011;7200;52.194;9.900;2024-01-15T07:38:13;5.93;;;4.10;;
14231;SDS011;7200;52.194;9.900;2024-01-15T07:40:39;5.27;;;3.50;;
14231;SDS011;7200;52.194;9.900;2024-01-15T07:43:04;3.87;;;2.40;;
14231;SDS011;7200;52.194;9.900;2024-01-15T07:45:30;4.70;;;3.80;;
14231;SDS011;7200;52.194;9.900;2024-01-15T07:47:55;8.47;;;3.80;;
14231;SDS011;7200;52.194;9.900;2024-01-15T07:50:20;3.00;;;2.67;;
14231;SDS011;7200;52.194;9.900;2024-01-15T07:52:46;2.90;;;1.93;;
14231;SDS011;7200;52.194;9.900;2024-01-15T07:55:11;5.23;;;2.87;;
14231;SDS011;7200;52.194;9.900;2024-01-15T07:57:36;3.20;;;2.00;;
14231;SDS011;7200;52.194;9.900;2024-01-15T08:00:02;4.63;;;1.83;;
14231;SDS011;7200;52.194;9.900;2024-01-15T08:02:30;4.13;;;2.47;;
14231;SDS011;7200;52.194;9.900;2024-01-15T08:04:57;6.37;;;3.63;;
14231;SDS011;7200;52.194;9.900;2024-01-15T08:07:22;7.33;;;3.37;;
14231;SDS011;7200;52.194;9.900;2024-01-15T08:09:48;5.17;;;2.10;;
14231;SDS011;7200;52.194;9.900;2024-01-15T08:12:14;2.10;;;1.90;;
14231;SDS011;7200;52.194;9.900;2024-01-15T08:14:39;1.90;;;1.13;;
14231;SDS011;7200;52.194;9.900;2024-01-15T08:17:05;2.73;;;1.83;;
14231;SDS011;7200;52.194;9.900;2024-01-15T08:19:30;4.63;;;2.50;;
14231;SDS011;7200;52.194;9.900;2024-01-15T08:21:56;2.47;;;1.97;;
14231;SDS011;7200;52.194;9.900;2024-01-15T08:24:21;4.87;;;1.93;;
14231;SDS011;7200;52.194;9.900;2024-01-15T08:26:47;2.60;;;1.90;;
14231;SDS011;7200;52.194;9.900;2024-01-15T08:29:12;3.63;;;1.87;;
14231;SDS011;7200;52.194;9.900;2024-01-15T08:31:37;2.50;;;1.83;;
14231;SDS011;7200;52.194;9.900;2024-01-15T08:34:02;1.67;;;1.50;;
14231;SDS011;7200;52.194;9.900;2024-01-15T08:36:28;4.03;;;1.90;;
14231;SDS011;7200;52.194;9.900;2024-01-15T08:38:56;3.80;;;1.87;;
14231;SDS011;7200;52.194;9.900;2024-01-15T08:41:21;3.87;;;1.83;;
14231;SDS011;7200;52.194;9.900;2024-01-15T08:43:47;2.90;;;1.03;;
14231;SDS011;7200;52.194;9.900;2024-01-15T08:46:12;2.00;;;1.63;;
14231;SDS011;7200;52.194;9.900;2024-01-15T08:48:38;2.70;;;1.93;;
14231;SDS011;7200;52.194;9.900;2024-01-15T08:51:03;1.53;;;1.07;;
14231;SDS011;7200;52.194;9.900;2024-01-15T08:53:29;3.80;;;2.10;;
14231;SDS011;7200;52.194;9.900;2024-01-15T08:55:54;5.20;;;2.13;;
14231;SDS011;7200;52.194;9.900;2024-01-15T08:58:19;2.73;;;1.70;;
14231;SDS011;7200;52.194;9.900;2024-01-15T09:00:44;1.80;;;1.03;;
14231;SDS011;7200;52.194;9.900;2024-01-15T09:03:10;2.90;;;1.40;;
14231;SDS011;7200;52.194;9.900;2024-01-15T09:05:35;2.17;;;1.83;;
14231;SDS011;7200;52.194;9.900;2024-01-15T09:08:00;3.90;;;2.00;;
14231;SDS011;7200;52.194;9.900;2024-01-15T09:10:26;3.40;;;1.67;;
14231;SDS011;7200;52.194;9.900;2024-01-15T09:12:51;3.60;;;1.77;;
14231;SDS011;7200;52.194;9.900;2024-01-15T09:15:16;3.70;;;2.23;;
14231;SDS011;7200;52.194;9.900;2024-01-15T09:17:42;4.23;;;1.93;;
14231;SDS011;7200;52.194;9.900;2024-01-15T09:20:08;5.03;;;2.00;;
14231;SDS011;7200;52.194;9.900;2024-01-15T09:22:34;2.67;;;1.80;;
14231;SDS011;7200;52.194;9.900;2024-01-15T09:25:00;5.43;;;1.97;;
14231;SDS011;7200;52.194;9.900;2024-01-15T09:27:25;3.33;;;1.60;;
14231;SDS011;7200;52.194;9.900;2024-01-15T09:29:53;4.30;;;2.10;;
14231;SDS011;7200;52.194;9.900;2024-01-15T09:32:19;3.63;;;2.73;;
14231;SDS011;7200;52.194;9.900;2024-01-15T09:34:47;5.67;;;2.70;;
14231;SDS011;7200;52.194;9.900;2024-01-15T09:37:15;6.13;;;2.77;;
14231;SDS011;7200;52.194;9.900;2024-01-15T09:39:41;4.33;;;1.97;;
14231;SDS011;7200;52.194;9.900;2024-01-15T09:42:06;2.47;;;1.30;;
14231;SDS011;7200;52.194;9.900;2024-01-15T09:44:32;5.77;;;2.70;;
14231;SDS011;7200;52.194;9.900;2024-01-15T09:46:58;4.03;;;2.20;;
14231;SDS011;7200;52.194;9.900;2024-01-15T09:49:23;3.17;;;1.20;;
14231;SDS011;7200;52.194;9.900;2024-01-15T09:51:49;4.67;;;2.33;;
14231;SDS011;7200;52.194;9.900;2024-01-15T09:54:17;3.07;;;2.10;;
14231;SDS011;7200;52.194;9.900;2024-01-15T09:56:46;5.17;;;1.60;;
14231;SDS011;7200;52.194;9.900;2024-01-15T09:59:18;3.30;;;2.00;;
14231;SDS011;7200;52.194;9.900;2024-01-15T10:01:44;2.93;;;1.70;;
14231;SDS011;7200;52.194;9.900;2024-01-15T10:04:13;2.67;;;1.50;;
14231;SDS011;7200;52.194;9.900;2024-01-15T10:06:39;2.63;;;1.20;;
14231;SDS011;7200;52.194;9.900;2024-01-15T10:09:10;4.07;;;2.60;;
14231;SDS011;7200;52.194;9.900;2024-01-15T10:11:40;1.40;;;1.17;;
14231;SDS011;7200;52.194;9.900;2024-01-15T10:14:07;3.33;;;1.80;;
14231;SDS011;7200;52.194;9.900;2024-01-15T10:16:33;3.37;;;1.77;;
14231;SDS011;7200;52.194;9.900;2024-01-15T10:18:58;6.30;;;2.00;;
14231;SDS011;7200;52.194;9.900;2024-01-15T10:21:24;3.40;;;1.10;;
14231;SDS011;7200;52.194;9.900;2024-01-15T10:23:51;4.10;;;1.30;;
14231;SDS011;7200;52.194;9.900;2024-01-15T10:26:16;3.93;;;1.97;;
14231;SDS011;7200;52.194;9.900;2024-01-15T10:28:42;1.80;;;1.53;;
14231;SDS011;7200;52.194;9.900;2024-01-15T10:31:07;3.40;;;1.50;;
14231;SDS011;7200;52.194;9.900;2024-01-15T10:33:33;4.97;;;2.73;;
14231;SDS011;7200;52.194;9.900;2024-01-15T10:35:59;5.63;;;2.40;;
14231;SDS011;7200;52.194;9.900;2024-01-15T10:38:25;3.37;;;1.07;;
14231;SDS011;7200;52.194;9.900;2024-01-15T10:40:51;2.63;;;1.77;;
14231;SDS011;7200;52.194;9.900;2024-01-15T10:43:20;5.20;;;1.93;;
14231;SDS011;7200;52.194;9.900;2024-01-15T10:45:49;2.70;;;1.00;;
14231;SDS011;7200;52.194;9.900;2024-01-15T10:48:17;3.53;;;1.20;;
14231;SDS011;7200;52.194;9.900;2024-01-15T10:50:44;2.37;;;1.20;;
14231;SDS011;7200;52.194;9.900;2024-01-15T10:53:11;1.97;;;1.10;;
14231;SDS011;7200;52.194;9.900;2024-01-15T10:55:38;2.33;;;1.37;;
14231;SDS011;7200;52.194;9.900;2024-01-15T10:58:04;4.10;;;1.33;;
14231;SDS011;7200;52.194;9.900;2024-01-15T11:00:32;1.57;;;0.80;;
14231;SDS011;7200;52.194;9.900;2024-01-15T11:03:00;2.50;;;1.20;;
14231;SDS011;7200;52.194;9.900;2024-01-15T11:05:27;1.07;;;0.90;;
14231;SDS011;7200;52.194;9.900;2024-01-15T11:07:55;1.90;;;1.63;;
14231;SDS011;7200;52.194;9.900;2024-01-15T11:10:40;2.60;;;1.77;;
14231;SDS011;7200;52.194;9.900;2024-01-15T11:13:08;1.80;;;1.17;;
14231;SDS011;7200;52.194;9.900;2024-01-15T11:15:54;1.90;;;1.47;;
14231;SDS011;7200;52.194;9.900;2024-01-15T11:18:22;1.60;;;1.50;;
14231;SDS011;7200;52.194;9.900;2024-01-15T11:23:51;7.33;;;1.50;;
14231;SDS011;7200;52.194;9.900;2024-01-15T11:26:28;3.07;;;1.93;;
14231;SDS011;7200;52.194;9.900;2024-01-15T11:29:02;2.20;;;1.87;;
14231;SDS011;7200;52.194;9.900;2024-01-15T11:34:09;1.43;;;1.23;;
14231;SDS011;7200;52.194;9.900;2024-01-15T11:42:04;4.07;;;1.97;;
14231;SDS011;7200;52.194;9.900;2024-01-15T11:44:29;1.27;;;1.17;;
14231;SDS011;7200;52.194;9.900;2024-01-15T11:46:57;3.27;;;1.80;;
14231;SDS011;7200;52.194;9.900;2024-01-15T11:52:18;6.20;;;2.53;;
14231;SDS011;7200;52.194;9.900;2024-01-15T11:55:01;3.57;;;1.20;;
14231;SDS011;7200;52.194;9.900;2024-01-15T12:00:12;4.43;;;2.33;;
14231;SDS011;7200;52.194;9.900;2024-01-15T12:02:42;3.10;;;2.37;;
14231;SDS011;7200;52.194;9.900;2024-01-15T12:05:09;2.83;;;1.07;;
14231;SDS011;7200;52.194;9.900;2024-01-15T12:07:35;2.63;;;1.60;;
14231;SDS011;7200;52.194;9.900;2024-01-15T12:10:01;3.47;;;2.20;;
14231;SDS011;7200;52.194;9.900;2024-01-15T12:12:32;3.53;;;2.00;;
14231;SDS011;7200;52.194;9.900;2024-01-15T12:15:04;3.30;;;1.50;;
14231;SDS011;7200;52.194;9.900;2024-01-15T12:17:30;5.97;;;2.30;;
14231;SDS011;7200;52.194;9.900;2024-01-15T12:19:56;3.33;;;1.57;;
14231;SDS011;7200;52.194;9.900;2024-01-15T12:22:21;5.97;;;2.20;;
14231;SDS011;7200;52.194;9.900;2024-01-15T12:24:47;1.80;;;1.50;;
14231;SDS011;7200;52.194;9.900;2024-01-15T12:27:12;2.17;;;1.50;;
14231;SDS011;7200;52.194;9.900;2024-01-15T12:29:38;2.40;;;1.57;;
14231;SDS011;7200;52.194;9.900;2024-01-15T12:32:04;10.33;;;1.97;;
14231;SDS011;7200;52.194;9.900;2024-01-15T12:34:30;4.83;;;2.20;;
14231;SDS011;7200;52.194;9.900;2024-01-15T12:36:57;1.17;;;1.17;;
14231;SDS011;7200;52.194;9.900;2024-01-15T12:39:22;3.10;;;2.40;;
14231;SDS011;7200;52.194;9.900;2024-01-15T12:41:47;1.63;;;1.17;;
14231;SDS011;7200;52.194;9.900;2024-01-15T12:44:13;6.30;;;2.27;;
14231;SDS011;7200;52.194;9.900;2024-01-15T12:46:38;4.07;;;1.90;;
14231;SDS011;7200;52.194;9.900;2024-01-15T12:49:04;3.93;;;1.93;;
14231;SDS011;7200;52.194;9.900;2024-01-15T12:51:29;1.40;;;1.30;;
14231;SDS011;7200;52.194;9.900;2024-01-15T12:53:54;2.27;;;1.70;;
14231;SDS011;7200;52.194;9.900;2024-01-15T12:56:19;3.43;;;1.70;;
14231;SDS011;7200;52.194;9.900;2024-01-15T12:58:45;2.43;;;1.30;;
14231;SDS011;7200;52.194;9.900;2024-01-15T13:01:10;1.57;;;1.30;;
14231;SDS011;7200;52.194;9.900;2024-01-15T13:03:37;5.03;;;2.33;;
14231;SDS011;7200;52.194;9.900;2024-01-15T13:06:02;1.60;;;1.30;;
14231;SDS011;7200;52.194;9.900;2024-01-15T13:08:27;2.83;;;1.30;;
14231;SDS011;7200;52.194;9.900;2024-01-15T13:10:54;3.07;;;2.00;;
14231;SDS011;7200;52.194;9.900;2024-01-15T13:13:21;5.03;;;1.23;;
14231;SDS011;7200;52.194;9.900;2024-01-15T13:15:47;9.17;;;1.90;;
14231;SDS011;7200;52.194;9.900;2024-01-15T13:18:12;2.97;;;1.63;;
14231;SDS011;7200;52.194;9.900;2024-01-15T13:20:37;6.20;;;1.83;;
14231;SDS011;7200;52.194;9.900;2024-01-15T13:23:03;1.93;;;1.37;;
14231;SDS011;7200;52.194;9.900;2024-01-15T13:25:29;5.33;;;1.90;;
14231;SDS011;7200;52.194;9.900;2024-01-15T13:27:54;1.90;;;1.00;;
14231;SDS011;7200;52.194;9.900;2024-01-15T13:30:20;10.00;;;2.73;;
14231;SDS011;7200;52.194;9.900;2024-01-15T13:32:45;5.27;;;2.53;;
14231;SDS011;7200;52.194;9.900;2024-01-15T13:35:11;3.00;;;1.80;;
14231;SDS011;7200;52.194;9.900;2024-01-15T13:37:38;4.73;;;1.90;;
14231;SDS011;7200;52.194;9.900;2024-01-15T13:40:04;2.30;;;1.23;;
14231;SDS011;7200;52.194;9.900;2024-01-15T13:42:32;2.77;;;1.43;;
14231;SDS011;7200;52.194;9.900;2024-01-15T13:44:57;6.13;;;1.73;;
14231;SDS011;7200;52.194;9.900;2024-01-15T13:47:23;5.47;;;1.83;;
14231;SDS011;7200;52.194;9.900;2024-01-15T13:49:48;1.30;;;1.20;;
14231;SDS011;7200;52.194;9.900;2024-01-15T13:52:14;0.70;;;0.70;;
14231;SDS011;7200;52.194;9.900;2024-01-15T13:54:39;5.43;;;0.93;;
14231;SDS011;7200;52.194;9.900;2024-01-15T13:57:05;2.67;;;2.13;;
14231;SDS011;7200;52.194;9.900;2024-01-15T13:59:31;3.73;;;1.90;;
14231;SDS011;7200;52.194;9.900;2024-01-15T14:01:57;3.43;;;2.03;;
14231;SDS011;7200;52.194;9.900;2024-01-15T14:04:22;5.70;;;2.10;;
14231;SDS011;7200;52.194;9.900;2024-01-15T14:06:47;3.63;;;2.10;;
14231;SDS011;7200;52.194;9.900;2024-01-15T14:09:13;4.73;;;1.80;;
14231;SDS011;7200;52.194;9.900;2024-01-15T14:11:39;4.33;;;2.53;;
14231;SDS011;7200;52.194;9.900;2024-01-15T14:14:05;2.17;;;1.97;;
14231;SDS011;7200;52.194;9.900;2024-01-15T14:16:30;2.70;;;2.07;;
14231;SDS011;7200;52.194;9.900;2024-01-15T14:18:55;3.57;;;2.20;;
14231;SDS011;7200;52.194;9.900;2024-01-15T14:21:21;4.67;;;2.50;;
14231;SDS011;7200;52.194;9.900;2024-01-15T14:23:46;5.40;;;2.57;;
14231;SDS011;7200;52.194;9.900;2024-01-15T14:26:11;1.03;;;0.97;;
14231;SDS011;7200;52.194;9.900;2024-01-15T14:28:36;4.57;;;2.03;;
14231;SDS011;7200;52.194;9.900;2024-01-15T14:31:02;1.73;;;1.53;;
14231;SDS011;7200;52.194;9.900;2024-01-15T14:33:27;3.80;;;1.50;;
14231;SDS011;7200;52.194;9.900;2024-01-15T14:35:53;5.27;;;1.00;;
14231;SDS011;7200;52.194;9.900;2024-01-15T14:38:18;1.67;;;1.30;;
14231;SDS011;7200;52.194;9.900;2024-01-15T14:40:44;5.97;;;1.87;;
14231;SDS011;7200;52.194;9.900;2024-01-15T14:43:09;3.47;;;1.50;;
14231;SDS011;7200;52.194;9.900;2024-01-15T14:45:35;3.03;;;1.60;;
14231;SDS011;7200;52.194;9.900;2024-01-15T14:48:01;1.40;;;1.30;;
14231;SDS011;7200;52.194;9.900;2024-01-15T14:50:26;2.73;;;1.60;;
14231;SDS011;7200;52.194;9.900;2024-01-15T14:52:51;2.47;;;2.17;;
14231;SDS011;7200;52.194;9.900;2024-01-15T14:55:17;4.77;;;1.73;;
14231;SDS011;7200;52.194;9.900;2024-01-15T14:57:42;1.77;;;1.63;;
14231;SDS011;7200;52.194;9.900;2024-01-15T15:00:07;1.17;;;1.00;;
14231;SDS011;7200;52.194;9.900;2024-01-15T15:02:34;2.63;;;1.93;;
14231;SDS011;7200;52.194;9.900;2024-01-15T15:05:01;3.87;;;1.57;;
14231;SDS011;7200;52.194;9.900;2024-01-15T15:07:27;3.80;;;1.90;;
14231;SDS011;7200;52.194;9.900;2024-01-15T15:09:52;1.17;;;0.90;;